sensor_id;sensor_type;location;lat;lon;timestamp;P1;durP1;ratioP1;P2;durP2;ratioP2
31206;SDS011;17834;52.992;8.856;2022-12-20T00:01:29;11.95;;;5.75;;
31206;SDS011;17834;52.992;8.856;2022-12-20T00:03:56;10.45;;;5.93;;
31206;SDS011;17834;52.992;8.856;2022-12-20T00:06:23;10.98;;;5.32;;
31206;SDS011;17834;52.992;8.856;2022-12-20T00:08:56;10.75;;;5.30;;
31206;SDS011;17834;52.992;8.856;2022-12-20T00:11:23;9.52;;;5.78;;
31206;SDS011;17834;52.992;8.856;2022-12-20T00:13:49;11.27;;;6.47;;
31206;SDS011;17834;52.992;8.856;2022-12-20T00:16:17;11.02;;;5.70;;
31206;SDS011;17834;52.992;8.856;2022-12-20T00:18:43;9.55;;;5.43;;
31206;SDS011;17834;52.992;8.856;2022-12-20T00:21:10;11.05;;;5.20;;
31206;SDS011;17834;52.992;8.856;2022-12-20T00:23:37;13.35;;;6.68;;
31206;SDS011;17834;52.992;8.856;2022-12-20T00:26:13;10.68;;;5.65;;
31206;SDS011;17834;52.992;8.856;2022-12-20T00:28:40;10.88;;;5.55;;
31206;SDS011;17834;52.992;8.856;2022-12-20T00:31:06;9.10;;;5.15;;
31206;SDS011;17834;52.992;8.856;2022-12-20T00:33:33;9.75;;;5.63;;
31206;SDS011;17834;52.992;8.856;2022-12-20T00:36:00;8.38;;;4.85;;
31206;SDS011;17834;52.992;8.856;2022-12-20T00:38:26;15.73;;;6.30;;
31206;SDS011;17834;52.992;8.856;2022-12-20T00:41:26;10.18;;;5.05;;
31206;SDS011;17834;52.992;8.856;2022-12-20T00:43:44;14.07;;;5.93;;
31206;SDS011;17834;52.992;8.856;2022-12-20T00:46:11;9.13;;;5.10;;
31206;SDS011;17834;52.992;8.856;2022-12-20T00:48:38;10.38;;;5.65;;
31206;SDS011;17834;52.992;8.856;2022-12-20T00:51:15;11.88;;;5.60;;
31206;SDS011;17834;52.992;8.856;2022-12-20T00:53:42;11.88;;;4.95;;
31206;SDS011;17834;52.992;8.856;2022-12-20T00:56:08;14.30;;;7.05;;
31206;SDS011;17834;52.992;8.856;2022-12-20T00:58:35;14.65;;;5.80;;
31206;SDS011;17834;52.992;8.856;2022-12-20T01:01:02;14.38;;;5.70;;
31206;SDS011;17834;52.992;8.856;2022-12-20T01:03:28;9.60;;;5.50;;
31206;SDS011;17834;52.992;8.856;2022-12-20T01:05:55;9.23;;;5.35;;
31206;SDS011;17834;52.992;8.856;2022-12-20T01:08:21;8.68;;;5.00;;
31206;SDS011;17834;52.992;8.856;2022-12-20T01:13:26;8.27;;;4.97;;
31206;SDS011;17834;52.992;8.856;2022-12-20T01:15:52;9.43;;;4.90;;
31206;SDS011;17834;52.992;8.856;2022-12-20T01:18:18;10.23;;;4.85;;
31206;SDS011;17834;52.992;8.856;2022-12-20T01:20:44;9.07;;;4.82;;
31206;SDS011;17834;52.992;8.856;2022-12-20T01:23:10;9.52;;;5.32;;
31206;SDS011;17834;52.992;8.856;2022-12-20T01:25:36;9.35;;;5.22;;
31206;SDS011;17834;52.992;8.856;2022-12-20T01:28:02;11.05;;;4.80;;
31206;SDS011;17834;52.992;8.856;2022-12-20T01:30:28;7.40;;;4.80;;
31206;SDS011;17834;52.992;8.856;2022-12-20T01:32:54;8.57;;;5.28;;
31206;SDS011;17834;52.992;8.856;2022-12-20T01:35:20;8.13;;;4.75;;
31206;SDS011;17834;52.992;8.856;2022-12-20T01:37:46;7.85;;;4.65;;
31206;SDS011;17834;52.992;8.856;2022-12-20T01:40:12;8.07;;;4.63;;
31206;SDS011;17834;52.992;8.856;2022-12-20T01:42:38;8.82;;;4.78;;
31206;SDS011;17834;52.992;8.856;2022-12-20T01:45:05;9.98;;;4.68;;
31206;SDS011;17834;52.992;8.856;2022-12-20T01:47:32;10.60;;;4.82;;
31206;SDS011;17834;52.992;8.856;2022-12-20T01:49:59;8.95;;;5.00;;
31206;SDS011;17834;52.992;8.856;2022-12-20T01:52:34;7.90;;;4.68;;
31206;SDS011;17834;52.992;8.856;2022-12-20T01:55:03;9.30;;;4.53;;
31206;SDS011;17834;52.992;8.856;2022-12-20T01:57:49;10.23;;;4.97;;
31206;SDS011;17834;52.992;8.856;2022-12-20T02:00:16;10.93;;;5.50;;
31206;SDS011;17834;52.992;8.856;2022-12-20T02:02:43;7.82;;;4.35;;
31206;SDS011;17834;52.992;8.856;2022-12-20T02:05:10;7.93;;;4.45;;
31206;SDS011;17834;52.992;8.856;2022-12-20T02:07:38;9.38;;;4.60;;
31206;SDS011;17834;52.992;8.856;2022-12-20T02:10:06;8.38;;;4.47;;
31206;SDS011;17834;52.992;8.856;2022-12-20T02:12:44;9.88;;;5.18;;
31206;SDS011;17834;52.992;8.856;2022-12-20T02:28:03;9.48;;;4.75;;
31206;SDS011;17834;52.992;8.856;2022-12-20T02:30:34;10.02;;;5.15;;
31206;SDS011;17834;52.992;8.856;2022-12-20T02:33:02;7.53;;;4.15;;
31206;SDS011;17834;52.992;8.856;2022-12-20T02:35:29;13.23;;;5.05;;
31206;SDS011;17834;52.992;8.856;2022-12-20T02:37:57;9.38;;;4.80;;
31206;SDS011;17834;52.992;8.856;2022-12-20T02:40:27;7.75;;;4.80;;
31206;SDS011;17834;52.992;8.856;2022-12-20T02:42:58;6.18;;;3.60;;
31206;SDS011;17834;52.992;8.856;2022-12-20T02:45:26;7.47;;;4.72;;
31206;SDS011;17834;52.992;8.856;2022-12-20T02:51:00;9.32;;;5.20;;
31206;SDS011;17834;52.992;8.856;2022-12-20T02:53:07;11.55;;;4.72;;
31206;SDS011;17834;52.992;8.856;2022-12-20T02:55:41;8.27;;;4.70;;
31206;SDS011;17834;52.992;8.856;2022-12-20T03:00:55;7.35;;;4.25;;
31206;SDS011;17834;52.992;8.856;2022-12-20T03:03:21;10.27;;;5.22;;
31206;SDS011;17834;52.992;8.856;2022-12-20T03:05:48;6.55;;;4.13;;
31206;SDS011;17834;52.992;8.856;2022-12-20T03:08:15;8.73;;;4.85;;
31206;SDS011;17834;52.992;8.856;2022-12-20T03:10:41;6.75;;;4.20;;
31206;SDS011;17834;52.992;8.856;2022-12-20T03:13:07;6.05;;;4.00;;
31206;SDS011;17834;52.992;8.856;2022-12-20T03:15:33;8.48;;;4.30;;
31206;SDS011;17834;52.992;8.856;2022-12-20T03:17:59;9.38;;;4.43;;
31206;SDS011;17834;52.992;8.856;2022-12-20T03:20:25;8.98;;;4.55;;
31206;SDS011;17834;52.992;8.856;2022-12-20T03:22:51;11.50;;;5.10;;
31206;SDS011;17834;52.992;8.856;2022-12-20T03:25:17;9.20;;;4.55;;
31206;SDS011;17834;52.992;8.856;2022-12-20T03:27:43;9.63;;;4.85;;
31206;SDS011;17834;52.992;8.856;2022-12-20T03:30:09;7.03;;;4.10;;
31206;SDS011;17834;52.992;8.856;2022-12-20T03:32:36;5.90;;;4.03;;
31206;SDS011;17834;52.992;8.856;2022-12-20T03:35:02;8.38;;;4.80;;
31206;SDS011;17834;52.992;8.856;2022-12-20T03:37:28;8.23;;;4.15;;
31206;SDS011;17834;52.992;8.856;2022-12-20T03:39:54;7.00;;;3.97;;
31206;SDS011;17834;52.992;8.856;2022-12-20T03:42:20;6.82;;;4.13;;
31206;SDS011;17834;52.992;8.856;2022-12-20T03:44:46;7.35;;;4.25;;
31206;SDS011;17834;52.992;8.856;2022-12-20T03:47:12;7.25;;;4.10;;
31206;SDS011;17834;52.992;8.856;2022-12-20T03:49:38;8.75;;;4.55;;
31206;SDS011;17834;52.992;8.856;2022-12-20T03:52:04;9.68;;;4.53;;
31206;SDS011;17834;52.992;8.856;2022-12-20T03:54:30;9.02;;;4.38;;
31206;SDS011;17834;52.992;8.856;2022-12-20T03:56:56;13.45;;;7.00;;
31206;SDS011;17834;52.992;8.856;2022-12-20T03:59:22;8.98;;;5.30;;
31206;SDS011;17834;52.992;8.856;2022-12-20T04:01:48;11.45;;;4.63;;
31206;SDS011;17834;52.992;8.856;2022-12-20T04:04:14;8.13;;;4.68;;
31206;SDS011;17834;52.992;8.856;2022-12-20T04:06:40;6.80;;;3.83;;
31206;SDS011;17834;52.992;8.856;2022-12-20T04:09:06;6.55;;;3.80;;
31206;SDS011;17834;52.992;8.856;2022-12-20T04:11:32;5.63;;;3.72;;
31206;SDS011;17834;52.992;8.856;2022-12-20T04:13:58;8.25;;;4.72;;
31206;SDS011;17834;52.992;8.856;2022-12-20T04:16:26;9.18;;;3.70;;
31206;SDS011;17834;52.992;8.856;2022-12-20T04:18:52;8.60;;;4.38;;
31206;SDS011;17834;52.992;8.856;2022-12-20T04:21:28;7.00;;;3.78;;
31206;SDS011;17834;52.992;8.856;2022-12-20T04:23:55;6.53;;;3.53;;
31206;SDS011;17834;52.992;8.856;2022-12-20T04:26:22;6.13;;;3.38;;
31206;SDS011;17834;52.992;8.856;2022-12-20T04:28:48;6.60;;;4.35;;
31206;SDS011;17834;52.992;8.856;2022-12-20T04:31:14;7.32;;;3.65;;
31206;SDS011;17834;52.992;8.856;2022-12-20T04:33:40;6.88;;;3.80;;
31206;SDS011;17834;52.992;8.856;2022-12-20T04:36:06;7.88;;;4.07;;
31206;SDS011;17834;52.992;8.856;2022-12-20T04:38:33;5.40;;;3.65;;
31206;SDS011;17834;52.992;8.856;2022-12-20T04:40:59;6.68;;;3.53;;
31206;SDS011;17834;52.992;8.856;2022-12-20T04:43:25;8.80;;;4.00;;
31206;SDS011;17834;52.992;8.856;2022-12-20T04:45:52;7.20;;;3.65;;
31206;SDS011;17834;52.992;8.856;2022-12-20T04:48:20;6.10;;;3.40;;
31206;SDS011;17834;52.992;8.856;2022-12-20T04:50:49;7.60;;;3.50;;
31206;SDS011;17834;52.992;8.856;2022-12-20T04:53:15;6.95;;;4.32;;
31206;SDS011;17834;52.992;8.856;2022-12-20T04:56:00;4.75;;;2.90;;
31206;SDS011;17834;52.992;8.856;2022-12-20T04:58:26;4.93;;;3.35;;
31206;SDS011;17834;52.992;8.856;2022-12-20T05:00:52;7.05;;;3.78;;
31206;SDS011;17834;52.992;8.856;2022-12-20T05:03:19;6.88;;;3.65;;
31206;SDS011;17834;52.992;8.856;2022-12-20T05:05:45;7.03;;;3.83;;
31206;SDS011;17834;52.992;8.856;2022-12-20T05:08:11;8.15;;;4.07;;
31206;SDS011;17834;52.992;8.856;2022-12-20T05:10:37;8.07;;;3.70;;
31206;SDS011;17834;52.992;8.856;2022-12-20T05:13:03;6.88;;;3.22;;
31206;SDS011;17834;52.992;8.856;2022-12-20T05:15:29;6.03;;;3.78;;
31206;SDS011;17834;52.992;8.856;2022-12-20T05:17:55;9.35;;;3.72;;
31206;SDS011;17834;52.992;8.856;2022-12-20T05:20:24;6.80;;;3.67;;
31206;SDS011;17834;52.992;8.856;2022-12-20T05:22:50;10.07;;;4.20;;
31206;SDS011;17834;52.992;8.856;2022-12-20T05:25:36;8.40;;;3.83;;
31206;SDS011;17834;52.992;8.856;2022-12-20T05:28:21;6.05;;;3.72;;
31206;SDS011;17834;52.992;8.856;2022-12-20T05:30:47;7.40;;;3.78;;
31206;SDS011;17834;52.992;8.856;2022-12-20T05:33:13;8.95;;;3.90;;
31206;SDS011;17834;52.992;8.856;2022-12-20T05:35:39;7.57;;;3.88;;
31206;SDS011;17834;52.992;8.856;2022-12-20T05:38:05;6.43;;;3.65;;
31206;SDS011;17834;52.992;8.856;2022-12-20T05:40:31;11.07;;;4.15;;
31206;SDS011;17834;52.992;8.856;2022-12-20T05:42:57;11.90;;;5.05;;
31206;SDS011;17834;52.992;8.856;2022-12-20T05:45:23;7.05;;;4.45;;
31206;SDS011;17834;52.992;8.856;2022-12-20T05:47:49;9.65;;;5.07;;
31206;SDS011;17834;52.992;8.856;2022-12-20T05:50:15;10.70;;;4.43;;
31206;SDS011;17834;52.992;8.856;2022-12-20T05:52:41;5.70;;;3.72;;
31206;SDS011;17834;52.992;8.856;2022-12-20T05:55:07;7.20;;;3.95;;
31206;SDS011;17834;52.992;8.856;2022-12-20T05:57:34;6.72;;;3.83;;
31206;SDS011;17834;52.992;8.856;2022-12-20T06:00:00;8.70;;;4.03;;
31206;SDS011;17834;52.992;8.856;2022-12-20T06:02:26;7.72;;;4.00;;
31206;SDS011;17834;52.992;8.856;2022-12-20T06:04:52;10.93;;;4.55;;
31206;SDS011;17834;52.992;8.856;2022-12-20T06:07:19;7.53;;;3.90;;
31206;SDS011;17834;52.992;8.856;2022-12-20T06:09:45;7.03;;;3.92;;
31206;SDS011;17834;52.992;8.856;2022-12-20T06:12:11;9.60;;;4.20;;
31206;SDS011;17834;52.992;8.856;2022-12-20T06:14:37;7.22;;;4.20;;
31206;SDS011;17834;52.992;8.856;2022-12-20T06:17:03;7.75;;;4.13;;
31206;SDS011;17834;52.992;8.856;2022-12-20T06:19:29;7.72;;;4.63;;
31206;SDS011;17834;52.992;8.856;2022-12-20T06:21:55;7.30;;;4.00;;
31206;SDS011;17834;52.992;8.856;2022-12-20T06:24:21;7.10;;;4.00;;
31206;SDS011;17834;52.992;8.856;2022-12-20T06:26:49;9.20;;;4.78;;
31206;SDS011;17834;52.992;8.856;2022-12-20T06:29:15;9.07;;;4.53;;
31206;SDS011;17834;52.992;8.856;2022-12-20T06:31:42;9.23;;;4.78;;
31206;SDS011;17834;52.992;8.856;2022-12-20T06:34:08;8.40;;;4.35;;
31206;SDS011;17834;52.992;8.856;2022-12-20T06:36:34;7.78;;;4.65;;
31206;SDS011;17834;52.992;8.856;2022-12-20T06:39:00;7.53;;;4.43;;
31206;SDS011;17834;52.992;8.856;2022-12-20T06:41:27;7.07;;;4.53;;
31206;SDS011;17834;52.992;8.856;2022-12-20T06:43:53;13.27;;;4.72;;
31206;SDS011;17834;52.992;8.856;2022-12-20T06:46:19;7.47;;;4.32;;
31206;SDS011;17834;52.992;8.856;2022-12-20T06:48:45;9.65;;;4.88;;
31206;SDS011;17834;52.992;8.856;2022-12-20T06:51:11;9.05;;;4.88;;
31206;SDS011;17834;52.992;8.856;2022-12-20T06:53:37;10.00;;;4.82;;
31206;SDS011;17834;52.992;8.856;2022-12-20T06:56:03;7.15;;;4.47;;
31206;SDS011;17834;52.992;8.856;2022-12-20T06:58:29;9.40;;;4.30;;
31206;SDS011;17834;52.992;8.856;2022-12-20T07:00:55;8.35;;;4.03;;
31206;SDS011;17834;52.992;8.856;2022-12-20T07:03:21;10.60;;;4.95;;
31206;SDS011;17834;52.992;8.856;2022-12-20T07:05:51;6.90;;;3.83;;
31206;SDS011;17834;52.992;8.856;2022-12-20T07:08:17;10.55;;;5.47;;
31206;SDS011;17834;52.992;8.856;2022-12-20T07:10:43;8.95;;;4.60;;
31206;SDS011;17834;52.992;8.856;2022-12-20T07:13:09;8.38;;;4.28;;
31206;SDS011;17834;52.992;8.856;2022-12-20T07:15:35;9.55;;;4.57;;
31206;SDS011;17834;52.992;8.856;2022-12-20T07:18:01;7.25;;;4.50;;
31206;SDS011;17834;52.992;8.856;2022-12-20T07:20:28;8.40;;;4.45;;
31206;SDS011;17834;52.992;8.856;2022-12-20T07:22:54;10.70;;;4.35;;
31206;SDS011;17834;52.992;8.856;2022-12-20T07:25:20;8.15;;;4.60;;
31206;SDS011;17834;52.992;8.856;2022-12-20T07:27:46;11.68;;;4.90;;
31206;SDS011;17834;52.992;8.856;2022-12-20T07:30:13;9.30;;;4.70;;
31206;SDS011;17834;52.992;8.856;2022-12-20T07:32:39;8.45;;;4.50;;
31206;SDS011;17834;52.992;8.856;2022-12-20T07:35:05;8.38;;;4.65;;
31206;SDS011;17834;52.992;8.856;2022-12-20T07:37:32;8.95;;;4.45;;
31206;SDS011;17834;52.992;8.856;2022-12-20T07:39:58;8.45;;;4.75;;
31206;SDS011;17834;52.992;8.856;2022-12-20T07:42:24;7.35;;;4.15;;
31206;SDS011;17834;52.992;8.856;2022-12-20T07:44:50;7.80;;;4.18;;
31206;SDS011;17834;52.992;8.856;2022-12-20T07:47:16;11.23;;;4.72;;
31206;SDS011;17834;52.992;8.856;2022-12-20T07:49:42;10.60;;;4.55;;
31206;SDS011;17834;52.992;8.856;2022-12-20T07:52:08;9.18;;;4.50;;
31206;SDS011;17834;52.992;8.856;2022-12-20T07:54:37;10.60;;;4.78;;
31206;SDS011;17834;52.992;8.856;2022-12-20T07:57:08;8.90;;;4.93;;
31206;SDS011;17834;52.992;8.856;2022-12-20T07:59:37;6.70;;;3.97;;
31206;SDS011;17834;52.992;8.856;2022-12-20T08:02:05;9.90;;;4.55;;
31206;SDS011;17834;52.992;8.856;2022-12-20T08:04:32;7.18;;;3.92;;
31206;SDS011;17834;52.992;8.856;2022-12-20T08:06:58;7.78;;;3.92;;
31206;SDS011;17834;52.992;8.856;2022-12-20T08:09:26;10.35;;;4.63;;
31206;SDS011;17834;52.992;8.856;2022-12-20T08:11:55;7.90;;;4.25;;
31206;SDS011;17834;52.992;8.856;2022-12-20T08:14:22;10.07;;;3.80;;
31206;SDS011;17834;52.992;8.856;2022-12-20T08:16:48;9.52;;;4.63;;
31206;SDS011;17834;52.992;8.856;2022-12-20T08:19:14;8.38;;;4.43;;
31206;SDS011;17834;52.992;8.856;2022-12-20T08:21:40;6.63;;;4.15;;
31206;SDS011;17834;52.992;8.856;2022-12-20T08:24:06;9.18;;;4.30;;
31206;SDS011;17834;52.992;8.856;2022-12-20T08:26:36;8.80;;;4.95;;
31206;SDS011;17834;52.992;8.856;2022-12-20T08:29:02;6.97;;;4.35;;
31206;SDS011;17834;52.992;8.856;2022-12-20T08:31:28;6.18;;;4.15;;
31206;SDS011;17834;52.992;8.856;2022-12-20T08:33:54;8.10;;;4.70;;
31206;SDS011;17834;52.992;8.856;2022-12-20T08:36:20;8.73;;;4.70;;
31206;SDS011;17834;52.992;8.856;2022-12-20T08:38:46;9.07;;;4.38;;
31206;SDS011;17834;52.992;8.856;2022-12-20T08:41:13;7.38;;;4.20;;
31206;SDS011;17834;52.992;8.856;2022-12-20T08:43:40;8.88;;;4.05;;
31206;SDS011;17834;52.992;8.856;2022-12-20T08:46:07;9.10;;;3.97;;
31206;SDS011;17834;52.992;8.856;2022-12-20T08:48:33;7.20;;;4.07;;
31206;SDS011;17834;52.992;8.856;2022-12-20T08:51:00;7.40;;;4.10;;
31206;SDS011;17834;52.992;8.856;2022-12-20T08:53:27;7.78;;;4.63;;
31206;SDS011;17834;52.992;8.856;2022-12-20T08:55:53;5.85;;;3.58;;
31206;SDS011;17834;52.992;8.856;2022-12-20T08:58:27;12.35;;;4.05;;
31206;SDS011;17834;52.992;8.856;2022-12-20T09:00:53;10.52;;;4.22;;
31206;SDS011;17834;52.992;8.856;2022-12-20T09:03:19;7.13;;;4.05;;
31206;SDS011;17834;52.992;8.856;2022-12-20T09:05:45;8.70;;;3.92;;
31206;SDS011;17834;52.992;8.856;2022-12-20T09:08:11;10.57;;;4.25;;
31206;SDS011;17834;52.992;8.856;2022-12-20T09:10:37;7.78;;;4.15;;
31206;SDS011;17834;52.992;8.856;2022-12-20T09:13:03;6.50;;;3.97;;
31206;SDS011;17834;52.992;8.856;2022-12-20T09:15:29;8.82;;;4.18;;
31206;SDS011;17834;52.992;8.856;2022-12-20T09:17:55;7.28;;;3.67;;
31206;SDS011;17834;52.992;8.856;2022-12-20T09:20:22;7.13;;;3.85;;
31206;SDS011;17834;52.992;8.856;2022-12-20T09:22:47;6.63;;;3.50;;
31206;SDS011;17834;52.992;8.856;2022-12-20T09:25:13;8.82;;;4.18;;
31206;SDS011;17834;52.992;8.856;2022-12-20T09:27:40;10.27;;;4.47;;
31206;SDS011;17834;52.992;8.856;2022-12-20T09:30:06;7.90;;;4.07;;
31206;SDS011;17834;52.992;8.856;2022-12-20T09:32:32;6.30;;;3.67;;
31206;SDS011;17834;52.992;8.856;2022-12-20T09:34:58;6.60;;;3.70;;
31206;SDS011;17834;52.992;8.856;2022-12-20T09:37:24;7.00;;;3.70;;
31206;SDS011;17834;52.992;8.856;2022-12-20T09:39:50;7.22;;;3.45;;
31206;SDS011;17834;52.992;8.856;2022-12-20T09:42:23;7.88;;;4.05;;
31206;SDS011;17834;52.992;8.856;2022-12-20T09:44:49;6.93;;;3.50;;
31206;SDS011;17834;52.992;8.856;2022-12-20T09:47:19;6.05;;;3.60;;
31206;SDS011;17834;52.992;8.856;2022-12-20T09:49:47;9.15;;;3.67;;
31206;SDS011;17834;52.992;8.856;2022-12-20T09:55:17;5.78;;;3.72;;
31206;SDS011;17834;52.992;8.856;2022-12-20T10:00:28;10.38;;;4.30;;
31206;SDS011;17834;52.992;8.856;2022-12-20T10:03:01;6.82;;;3.38;;
31206;SDS011;17834;52.992;8.856;2022-12-20T10:12:58;7.15;;;3.75;;
31206;SDS011;17834;52.992;8.856;2022-12-20T10:15:46;6.68;;;3.50;;
31206;SDS011;17834;52.992;8.856;2022-12-20T10:18:20;6.25;;;3.40;;
31206;SDS011;17834;52.992;8.856;2022-12-20T10:23:42;8.18;;;3.90;;
31206;SDS011;17834;52.992;8.856;2022-12-20T10:26:10;6.72;;;3.38;;
31206;SDS011;17834;52.992;8.856;2022-12-20T10:28:36;7.30;;;4.18;;
31206;SDS011;17834;52.992;8.856;2022-12-20T10:31:07;9.73;;;4.00;;
31206;SDS011;17834;52.992;8.856;2022-12-20T10:33:35;7.18;;;4.13;;
31206;SDS011;17834;52.992;8.856;2022-12-20T10:38:44;6.57;;;4.05;;
31206;SDS011;17834;52.992;8.856;2022-12-20T10:41:13;6.25;;;3.80;;
31206;SDS011;17834;52.992;8.856;2022-12-20T10:43:44;6.68;;;3.83;;
31206;SDS011;17834;52.992;8.856;2022-12-20T10:46:11;8.30;;;4.32;;
31206;SDS011;17834;52.992;8.856;2022-12-20T10:48:41;7.68;;;3.92;;
31206;SDS011;17834;52.992;8.856;2022-12-20T10:53:34;8.02;;;4.35;;
31206;SDS011;17834;52.992;8.856;2022-12-20T12:09:05;5.22;;;3.65;;
31206;SDS011;17834;52.992;8.856;2022-12-20T12:11:34;5.60;;;3.67;;
31206;SDS011;17834;52.992;8.856;2022-12-20T12:14:02;5.55;;;3.38;;
31206;SDS011;17834;52.992;8.856;2022-12-20T12:18:58;6.88;;;3.60;;
31206;SDS011;17834;52.992;8.856;2022-12-20T12:21:31;10.45;;;3.80;;
31206;SDS011;17834;52.992;8.856;2022-12-20T12:24:06;7.90;;;3.40;;
31206;SDS011;17834;52.992;8.856;2022-12-20T12:26:36;6.53;;;3.85;;
31206;SDS011;17834;52.992;8.856;2022-12-20T12:31:35;6.30;;;3.60;;
31206;SDS011;17834;52.992;8.856;2022-12-20T12:34:07;8.18;;;3.25;;
31206;SDS011;17834;52.992;8.856;2022-12-20T12:39:26;7.53;;;4.05;;
31206;SDS011;17834;52.992;8.856;2022-12-20T12:42:10;6.68;;;3.75;;
31206;SDS011;17834;52.992;8.856;2022-12-20T12:45:00;8.60;;;3.38;;
31206;SDS011;17834;52.992;8.856;2022-12-20T12:47:36;8.32;;;3.78;;
31206;SDS011;17834;52.992;8.856;2022-12-20T12:50:03;11.38;;;4.47;;
31206;SDS011;17834;52.992;8.856;2022-12-20T12:52:43;9.43;;;4.35;;
31206;SDS011;17834;52.992;8.856;2022-12-20T12:57:55;9.60;;;4.32;;
31206;SDS011;17834;52.992;8.856;2022-12-20T13:03:12;6.47;;;3.10;;
31206;SDS011;17834;52.992;8.856;2022-12-20T13:05:39;5.65;;;3.25;;
31206;SDS011;17834;52.992;8.856;2022-12-20T13:08:14;5.97;;;3.40;;
31206;SDS011;17834;52.992;8.856;2022-12-20T13:13:17;6.78;;;3.58;;
31206;SDS011;17834;52.992;8.856;2022-12-20T13:15:45;6.15;;;3.40;;
31206;SDS011;17834;52.992;8.856;2022-12-20T13:20:41;5.57;;;3.58;;
31206;SDS011;17834;52.992;8.856;2022-12-20T13:25:35;7.50;;;3.80;;
31206;SDS011;17834;52.992;8.856;2022-12-20T13:30:47;6.45;;;3.65;;
31206;SDS011;17834;52.992;8.856;2022-12-20T13:36:00;6.85;;;4.05;;
31206;SDS011;17834;52.992;8.856;2022-12-20T13:40:59;8.65;;;4.60;;
31206;SDS011;17834;52.992;8.856;2022-12-20T13:43:27;8.18;;;4.47;;
31206;SDS011;17834;52.992;8.856;2022-12-20T13:45:54;8.95;;;4.35;;
31206;SDS011;17834;52.992;8.856;2022-12-20T13:48:31;7.88;;;4.13;;
31206;SDS011;17834;52.992;8.856;2022-12-20T13:51:00;6.55;;;3.85;;
31206;SDS011;17834;52.992;8.856;2022-12-20T13:53:26;7.82;;;3.78;;
31206;SDS011;17834;52.992;8.856;2022-12-20T13:55:53;7.88;;;4.10;;
31206;SDS011;17834;52.992;8.856;2022-12-20T13:58:21;8.88;;;4.53;;
31206;SDS011;17834;52.992;8.856;2022-12-20T14:00:48;9.32;;;4.35;;
31206;SDS011;17834;52.992;8.856;2022-12-20T14:03:22;10.32;;;4.50;;
31206;SDS011;17834;52.992;8.856;2022-12-20T14:05:48;7.47;;;4.63;;
31206;SDS011;17834;52.992;8.856;2022-12-20T14:08:17;10.00;;;4.60;;
31206;SDS011;17834;52.992;8.856;2022-12-20T14:10:44;8.32;;;4.50;;
31206;SDS011;17834;52.992;8.856;2022-12-20T14:13:24;5.93;;;4.07;;
31206;SDS011;17834;52.992;8.856;2022-12-20T14:15:50;10.57;;;4.05;;
31206;SDS011;17834;52.992;8.856;2022-12-20T14:18:18;8.02;;;3.85;;
31206;SDS011;17834;52.992;8.856;2022-12-20T14:20:45;7.18;;;3.72;;
31206;SDS011;17834;52.992;8.856;2022-12-20T14:23:16;7.03;;;3.85;;
31206;SDS011;17834;52.992;8.856;2022-12-20T14:25:46;5.82;;;3.33;;
31206;SDS011;17834;52.992;8.856;2022-12-20T14:28:15;6.45;;;3.58;;
31206;SDS011;17834;52.992;8.856;2022-12-20T14:30:42;9.70;;;4.00;;
31206;SDS011;17834;52.992;8.856;2022-12-20T14:33:18;6.38;;;3.63;;
31206;SDS011;17834;52.992;8.856;2022-12-20T14:35:48;5.88;;;3.70;;
31206;SDS011;17834;52.992;8.856;2022-12-20T14:38:22;12.32;;;4.45;;
31206;SDS011;17834;52.992;8.856;2022-12-20T14:40:48;8.55;;;4.13;;
31206;SDS011;17834;52.992;8.856;2022-12-20T14:43:15;6.55;;;3.53;;
31206;SDS011;17834;52.992;8.856;2022-12-20T14:45:41;9.30;;;4.13;;
31206;SDS011;17834;52.992;8.856;2022-12-20T14:48:13;9.45;;;5.20;;
31206;SDS011;17834;52.992;8.856;2022-12-20T14:50:40;8.23;;;4.97;;
31206;SDS011;17834;52.992;8.856;2022-12-20T14:53:19;8.18;;;4.53;;
31206;SDS011;17834;52.992;8.856;2022-12-20T14:55:46;8.43;;;4.38;;
31206;SDS011;17834;52.992;8.856;2022-12-20T14:58:29;7.32;;;3.95;;
31206;SDS011;17834;52.992;8.856;2022-12-20T15:00:56;8.68;;;3.92;;
31206;SDS011;17834;52.992;8.856;2022-12-20T15:03:23;10.20;;;4.35;;
31206;SDS011;17834;52.992;8.856;2022-12-20T15:05:50;6.15;;;3.50;;
31206;SDS011;17834;52.992;8.856;2022-12-20T15:08:17;6.03;;;3.45;;
31206;SDS011;17834;52.992;8.856;2022-12-20T15:13:13;9.45;;;4.13;;
31206;SDS011;17834;52.992;8.856;2022-12-20T15:15:40;7.00;;;3.80;;
31206;SDS011;17834;52.992;8.856;2022-12-20T15:18:10;6.93;;;4.10;;
31206;SDS011;17834;52.992;8.856;2022-12-20T15:20:36;7.45;;;4.45;;
31206;SDS011;17834;52.992;8.856;2022-12-20T15:23:02;6.10;;;3.95;;
31206;SDS011;17834;52.992;8.856;2022-12-20T15:25:29;7.75;;;4.15;;
31206;SDS011;17834;52.992;8.856;2022-12-20T15:27:56;12.00;;;4.35;;
31206;SDS011;17834;52.992;8.856;2022-12-20T15:30:22;7.20;;;4.47;;
31206;SDS011;17834;52.992;8.856;2022-12-20T15:32:48;7.70;;;4.60;;
31206;SDS011;17834;52.992;8.856;2022-12-20T15:35:14;10.02;;;5.13;;
31206;SDS011;17834;52.992;8.856;2022-12-20T15:37:40;11.50;;;5.55;;
31206;SDS011;17834;52.992;8.856;2022-12-20T15:40:06;10.63;;;5.10;;
31206;SDS011;17834;52.992;8.856;2022-12-20T15:42:32;8.32;;;4.57;;
31206;SDS011;17834;52.992;8.856;2022-12-20T15:44:59;9.80;;;4.63;;
31206;SDS011;17834;52.992;8.856;2022-12-20T15:47:26;11.25;;;4.55;;
31206;SDS011;17834;52.992;8.856;2022-12-20T15:49:52;10.15;;;4.45;;
31206;SDS011;17834;52.992;8.856;2022-12-20T15:52:18;7.82;;;4.00;;
31206;SDS011;17834;52.992;8.856;2022-12-20T15:54:45;8.65;;;4.03;;
31206;SDS011;17834;52.992;8.856;2022-12-20T15:57:11;7.82;;;3.85;;
31206;SDS011;17834;52.992;8.856;2022-12-20T15:59:38;7.43;;;4.10;;
31206;SDS011;17834;52.992;8.856;2022-12-20T16:02:37;13.88;;;5.22;;
31206;SDS011;17834;52.992;8.856;2022-12-20T16:04:56;12.60;;;4.78;;
31206;SDS011;17834;52.992;8.856;2022-12-20T16:07:23;10.57;;;4.43;;
31206;SDS011;17834;52.992;8.856;2022-12-20T16:09:49;9.00;;;4.60;;
31206;SDS011;17834;52.992;8.856;2022-12-20T16:12:15;7.65;;;4.60;;
31206;SDS011;17834;52.992;8.856;2022-12-20T16:14:42;9.82;;;4.65;;
31206;SDS011;17834;52.992;8.856;2022-12-20T16:17:11;12.27;;;5.18;;
31206;SDS011;17834;52.992;8.856;2022-12-20T16:19:38;10.45;;;5.88;;
31206;SDS011;17834;52.992;8.856;2022-12-20T16:22:04;8.20;;;4.97;;
31206;SDS011;17834;52.992;8.856;2022-12-20T16:24:30;12.52;;;5.38;;
31206;SDS011;17834;52.992;8.856;2022-12-20T16:26:56;8.60;;;5.10;;
31206;SDS011;17834;52.992;8.856;2022-12-20T16:29:22;11.63;;;5.05;;
31206;SDS011;17834;52.992;8.856;2022-12-20T16:31:48;9.25;;;5.18;;
31206;SDS011;17834;52.992;8.856;2022-12-20T16:34:15;10.70;;;5.65;;
31206;SDS011;17834;52.992;8.856;2022-12-20T16:36:42;8.43;;;4.97;;
31206;SDS011;17834;52.992;8.856;2022-12-20T16:39:08;8.95;;;5.03;;
31206;SDS011;17834;52.992;8.856;2022-12-20T16:41:34;9.55;;;5.25;;
31206;SDS011;17834;52.992;8.856;2022-12-20T16:44:01;9.82;;;6.32;;
31206;SDS011;17834;52.992;8.856;2022-12-20T16:46:28;10.45;;;5.43;;
31206;SDS011;17834;52.992;8.856;2022-12-20T16:48:55;13.43;;;5.85;;
31206;SDS011;17834;52.992;8.856;2022-12-20T16:51:22;9.70;;;5.90;;
31206;SDS011;17834;52.992;8.856;2022-12-20T16:53:51;13.10;;;5.72;;
31206;SDS011;17834;52.992;8.856;2022-12-20T16:56:18;9.40;;;5.95;;
31206;SDS011;17834;52.992;8.856;2022-12-20T16:58:44;11.93;;;6.40;;
31206;SDS011;17834;52.992;8.856;2022-12-20T17:01:14;15.25;;;7.90;;
31206;SDS011;17834;52.992;8.856;2022-12-20T17:03:41;18.40;;;8.70;;
31206;SDS011;17834;52.992;8.856;2022-12-20T17:06:09;16.40;;;7.63;;
31206;SDS011;17834;52.992;8.856;2022-12-20T17:08:36;15.98;;;8.52;;
31206;SDS011;17834;52.992;8.856;2022-12-20T17:11:02;13.35;;;6.63;;
31206;SDS011;17834;52.992;8.856;2022-12-20T17:13:28;11.63;;;6.38;;
31206;SDS011;17834;52.992;8.856;2022-12-20T17:15:54;15.25;;;7.60;;